createdAt,value
2022-11-15T00:01:35.473Z,3.40
2022-11-15T00:04:02.284Z,3.00
2022-11-15T00:06:29.112Z,3.00
2022-11-15T00:08:56.202Z,3.37
2022-11-15T00:11:23.010Z,3.30
2022-11-15T00:13:49.855Z,3.40
2022-11-15T00:16:16.678Z,3.20
2022-11-15T00:18:49.247Z,3.57
2022-11-15T00:21:18.303Z,2.97
2022-11-15T00:23:45.094Z,3.10
2022-11-15T00:26:16.311Z,2.97
2022-11-15T00:28:43.522Z,3.13
2022-11-15T00:31:12.932Z,2.83
2022-11-15T00:33:39.984Z,2.43
2022-11-15T00:36:10.795Z,2.40
2022-11-15T00:38:39.453Z,2.57
2022-11-15T00:41:09.990Z,2.80
2022-11-15T00:43:37.964Z,2.70
2022-11-15T00:46:05.147Z,2.40
2022-11-15T00:48:32.828Z,2.43
2022-11-15T00:50:59.734Z,2.50
2022-11-15T00:53:26.691Z,2.90
2022-11-15T00:55:54.033Z,3.17
2022-11-15T00:58:21.031Z,3.07
2022-11-15T01:00:47.803Z,2.47
2022-11-15T01:03:14.578Z,2.97
2022-11-15T01:05:41.461Z,2.90
2022-11-15T01:08:14.607Z,2.90
2022-11-15T01:10:42.032Z,2.80
2022-11-15T01:13:09.082Z,2.73
2022-11-15T01:15:39.587Z,2.60
2022-11-15T01:18:06.436Z,2.60
2022-11-15T01:20:33.238Z,2.57
2022-11-15T01:22:59.987Z,2.50
2022-11-15T01:25:26.805Z,2.57
2022-11-15T01:27:53.616Z,2.47
2022-11-15T01:30:20.558Z,2.33
2022-11-15T01:32:47.536Z,2.30
2022-11-15T01:35:14.543Z,2.40
2022-11-15T01:37:42.741Z,2.30
2022-11-15T01:40:10.470Z,2.30
2022-11-15T01:42:37.439Z,2.20
2022-11-15T01:45:04.788Z,2.37
2022-11-15T01:47:39.206Z,2.20
2022-11-15T01:50:13.248Z,2.50
2022-11-15T01:52:41.574Z,2.30
2022-11-15T01:55:17.031Z,2.50
2022-11-15T01:57:47.677Z,2.20
2022-11-15T02:00:15.318Z,2.37
2022-11-15T02:02:42.164Z,2.40
2022-11-15T02:05:09.279Z,2.30
2022-11-15T02:07:36.842Z,5.27
2022-11-15T02:10:14.223Z,3.67
2022-11-15T02:12:41.685Z,2.70
2022-11-15T02:15:09.763Z,1.97
2022-11-15T02:17:55.695Z,2.20
2022-11-15T02:20:40.557Z,1.83
2022-11-15T02:23:25.217Z,1.90
2022-11-15T02:26:10.795Z,2.30
2022-11-15T02:29:11.395Z,1.90
2022-11-15T02:31:52.613Z,1.63
2022-11-15T02:34:31.282Z,2.13
2022-11-15T02:37:06.741Z,2.07
2022-11-15T02:40:04.349Z,2.00
2022-11-15T02:42:54.931Z,2.17
2022-11-15T02:45:31.303Z,1.70
2022-11-15T02:48:00.425Z,1.80
2022-11-15T02:50:30.403Z,1.80
2022-11-15T02:52:57.735Z,2.07
2022-11-15T02:55:36.038Z,2.10
2022-11-15T02:58:38.325Z,1.83
2022-11-15T03:01:21.820Z,2.00
2022-11-15T03:04:07.627Z,1.77
2022-11-15T03:06:34.327Z,1.90
2022-11-15T03:09:36.023Z,1.73
2022-11-15T03:12:13.461Z,1.80
2022-11-15T03:14:50.921Z,2.10
2022-11-15T03:17:24.800Z,2.10
2022-11-15T03:19:54.970Z,1.83
2022-11-15T03:22:25.586Z,2.00
2022-11-15T03:24:57.013Z,2.10
2022-11-15T03:27:27.509Z,1.80
2022-11-15T03:30:00.812Z,1.67
2022-11-15T03:32:31.818Z,1.73
2022-11-15T03:35:08.781Z,2.03
2022-11-15T03:37:38.233Z,1.80
2022-11-15T03:40:06.145Z,1.60
2022-11-15T03:42:47.274Z,1.80
2022-11-15T03:45:19.306Z,1.67
2022-11-15T03:48:03.412Z,2.00
2022-11-15T03:50:31.044Z,1.80
2022-11-15T03:52:59.749Z,1.73
2022-11-15T03:55:26.633Z,1.53
2022-11-15T03:57:56.872Z,1.60
2022-11-15T04:00:24.111Z,1.97
2022-11-15T04:02:50.850Z,2.40
2022-11-15T04:05:17.765Z,1.93
2022-11-15T04:07:44.634Z,2.00
2022-11-15T04:10:12.758Z,2.10
2022-11-15T04:12:44.178Z,1.63
2022-11-15T04:15:16.503Z,1.97
2022-11-15T04:17:45.063Z,1.80
2022-11-15T04:20:38.621Z,1.97
2022-11-15T04:23:31.845Z,1.97
2022-11-15T04:26:02.435Z,1.83
2022-11-15T04:28:33.816Z,1.97
2022-11-15T04:31:14.609Z,1.93
2022-11-15T04:33:43.093Z,2.10
2022-11-15T04:36:28.999Z,1.90
2022-11-15T04:38:56.151Z,2.10
2022-11-15T04:44:07.916Z,2.10
2022-11-15T04:46:42.273Z,2.10
2022-11-15T04:49:14.987Z,2.07
2022-11-15T04:51:41.946Z,2.30
2022-11-15T04:54:08.684Z,2.20
2022-11-15T04:56:35.515Z,2.30
2022-11-15T04:59:02.485Z,1.80
2022-11-15T05:04:45.486Z,2.10
2022-11-15T05:09:39.396Z,2.20
2022-11-15T05:12:11.351Z,2.17
2022-11-15T05:14:38.792Z,1.90
2022-11-15T05:17:11.924Z,2.07
2022-11-15T05:22:21.645Z,3.30
2022-11-15T05:28:06.244Z,3.10
2022-11-15T05:31:11.172Z,3.07
2022-11-15T05:33:40.339Z,2.90
2022-11-15T05:36:46.879Z,2.63
2022-11-15T05:41:54.286Z,2.10
2022-11-15T05:45:00.507Z,2.00
2022-11-15T05:47:39.733Z,2.00
2022-11-15T05:50:07.692Z,1.87
2022-11-15T17:01:50.541Z,4.40
2022-11-15T17:04:22.947Z,6.33
2022-11-15T17:06:52.024Z,5.93
2022-11-15T17:09:24.885Z,6.07
2022-11-15T17:11:53.038Z,7.27
2022-11-15T17:14:20.229Z,8.57
2022-11-15T17:16:47.633Z,7.63
2022-11-15T17:19:19.204Z,8.40
2022-11-15T17:21:47.312Z,7.63
2022-11-15T17:24:14.110Z,6.13
2022-11-15T17:26:42.837Z,5.33
2022-11-15T17:29:09.688Z,5.57
2022-11-15T17:31:36.981Z,4.20
2022-11-15T17:34:05.814Z,4.30
2022-11-15T17:36:33.007Z,5.83
2022-11-15T17:39:00.323Z,4.77
2022-11-15T17:41:28.981Z,4.40
2022-11-15T17:44:00.049Z,5.33
2022-11-15T17:46:28.645Z,4.90
2022-11-15T17:48:57.058Z,4.43
2022-11-15T17:51:24.134Z,4.00
2022-11-15T17:53:51.518Z,4.70
2022-11-15T17:56:20.774Z,4.77
2022-11-15T17:58:49.433Z,10.30
2022-11-15T18:01:24.413Z,6.03
2022-11-15T18:03:52.345Z,4.43
2022-11-15T18:06:20.759Z,4.97
2022-11-15T18:08:49.141Z,4.17
2022-11-15T18:11:21.896Z,5.60
2022-11-15T18:13:52.650Z,8.03
2022-11-15T18:16:22.468Z,5.63
2022-11-15T18:18:49.203Z,4.70
2022-11-15T18:21:21.765Z,4.90
2022-11-15T18:23:59.699Z,4.13
2022-11-15T18:26:29.051Z,3.70
2022-11-15T18:29:04.052Z,3.40
2022-11-15T18:31:31.559Z,6.57
2022-11-15T18:34:01.341Z,7.67
2022-11-15T18:36:30.059Z,5.60
2022-11-15T18:38:59.689Z,3.83
2022-11-15T18:41:30.782Z,3.33
2022-11-15T18:43:59.593Z,3.20
2022-11-15T18:46:29.047Z,3.33
2022-11-15T18:48:55.984Z,3.10
2022-11-15T18:51:27.581Z,3.10
2022-11-15T18:53:56.042Z,3.63
2022-11-15T18:56:24.362Z,3.20
2022-11-15T18:58:54.119Z,3.50
2022-11-15T19:01:35.701Z,3.63
2022-11-15T19:04:08.594Z,3.40
2022-11-15T19:06:41.603Z,3.10
2022-11-15T19:09:10.020Z,3.30
2022-11-15T19:11:39.444Z,3.43
2022-11-15T19:14:10.352Z,3.20
2022-11-15T19:16:39.900Z,3.43
2022-11-15T19:19:10.374Z,3.43
2022-11-15T19:21:37.433Z,3.77
2022-11-15T19:24:05.552Z,3.87
2022-11-15T19:26:32.896Z,3.70
2022-11-15T19:29:01.437Z,4.43
2022-11-15T19:31:32.111Z,4.30
2022-11-15T19:34:00.705Z,8.17
2022-11-15T19:36:32.683Z,6.97
2022-11-15T19:39:02.358Z,5.43
2022-11-15T19:41:29.653Z,4.07
2022-11-15T19:43:59.165Z,5.00
2022-11-15T19:46:26.960Z,4.90
2022-11-15T19:48:59.222Z,4.20
2022-11-15T19:51:29.440Z,4.03
2022-11-15T19:53:58.710Z,3.73
2022-11-15T19:56:25.834Z,3.90
2022-11-15T19:58:54.796Z,4.17
2022-11-15T20:01:22.979Z,7.83
2022-11-15T20:03:51.289Z,7.03
2022-11-15T20:06:20.522Z,5.77
2022-11-15T20:08:48.178Z,4.80
2022-11-15T20:11:15.883Z,4.47
2022-11-15T20:13:43.766Z,4.03
2022-11-15T20:16:16.786Z,3.80
2022-11-15T20:18:43.894Z,3.90
2022-11-15T20:21:10.724Z,3.97
2022-11-15T20:23:37.489Z,3.70
2022-11-15T20:26:04.406Z,3.80
2022-11-15T20:28:31.640Z,3.63
2022-11-15T20:31:00.682Z,3.87
2022-11-15T20:33:27.968Z,3.40
2022-11-15T20:35:55.141Z,3.23
2022-11-15T20:38:22.072Z,4.50
2022-11-15T20:40:50.075Z,4.20
2022-11-15T20:43:18.957Z,4.40
2022-11-15T20:45:50.502Z,3.83
2022-11-15T20:48:25.229Z,4.40
2022-11-15T20:50:52.249Z,4.17
2022-11-15T20:53:20.316Z,3.50
2022-11-15T20:55:49.823Z,3.60
2022-11-15T20:58:17.512Z,3.57
2022-11-15T21:00:45.681Z,3.70
2022-11-15T21:03:15.756Z,3.50
2022-11-15T21:05:44.349Z,3.47
2022-11-15T21:08:12.436Z,3.20
2022-11-15T21:13:47.185Z,4.33
2022-11-15T21:16:14.006Z,4.20
2022-11-15T21:18:40.750Z,3.70
2022-11-15T21:21:07.906Z,3.60
2022-11-15T21:23:43.944Z,3.20
2022-11-15T21:26:18.713Z,3.10
2022-11-15T21:28:45.814Z,3.10
2022-11-15T21:31:12.617Z,2.70
2022-11-15T21:33:39.427Z,3.43
2022-11-15T21:36:06.615Z,3.60
2022-11-15T21:38:33.926Z,3.20
2022-11-15T21:41:03.648Z,3.13
2022-11-15T21:43:30.598Z,3.20
2022-11-15T21:46:02.720Z,3.07
2022-11-15T21:48:32.291Z,3.07
2022-11-15T21:51:01.334Z,3.67
2022-11-15T21:53:38.635Z,3.53
2022-11-15T21:56:06.791Z,3.80
2022-11-15T21:58:34.156Z,3.50
2022-11-15T22:08:04.828Z,3.50
2022-11-15T22:10:34.852Z,3.60
2022-11-15T22:13:09.014Z,4.20
2022-11-15T22:15:35.939Z,3.77
2022-11-15T22:18:03.130Z,3.93
2022-11-15T22:20:44.230Z,3.87
2022-11-15T22:23:15.436Z,3.37
2022-11-15T22:25:43.105Z,3.50
2022-11-15T22:28:18.683Z,3.63
2022-11-15T22:34:49.273Z,3.10
2022-11-15T22:37:25.014Z,3.50
2022-11-15T22:39:54.580Z,3.57
2022-11-15T22:42:23.912Z,3.57
2022-11-15T22:44:51.370Z,3.10
2022-11-15T22:47:19.336Z,3.20
2022-11-15T22:50:06.774Z,3.03
2022-11-15T22:52:33.869Z,3.00
2022-11-15T22:55:00.801Z,2.87
2022-11-15T22:57:27.740Z,3.33
2022-11-15T22:59:55.307Z,3.20
2022-11-15T23:02:22.580Z,3.17
2022-11-15T23:04:49.640Z,2.80
2022-11-15T23:07:16.578Z,3.00
2022-11-15T23:09:47.768Z,3.30
2022-11-15T23:15:33.232Z,2.90
2022-11-15T23:18:00.540Z,2.93
2022-11-15T23:20:42.382Z,3.13
2022-11-15T23:23:10.859Z,2.73
2022-11-15T23:25:38.049Z,2.77
2022-11-15T23:28:06.451Z,3.10
2022-11-15T23:34:09.002Z,3.00
2022-11-15T23:36:44.630Z,3.20
2022-11-15T23:39:11.473Z,2.70
2022-11-15T23:41:38.523Z,3.03
2022-11-15T23:44:15.936Z,2.90
2022-11-15T23:46:42.977Z,3.03
2022-11-15T23:49:10.132Z,2.90
2022-11-15T23:52:20.669Z,2.73
2022-11-15T23:55:19.857Z,3.13
2022-11-15T23:57:46.922Z,3.10
